Portada
METAR-TAF:

METAR-TAF

Aeroports :

Danville, Illinois, Estats Units d'Amèrica

latitud: 40-11-58N, longitud: 087-35-44W, altitud: 212 m

Observació

L'informe es va fer fa 21 minuts, a les 01:55 UTC
Vent 6 kt del Oest/Nord-Oest
Temperatura 14°C
Humitat 67%
Pressió 1015 hPa
Visibilitat: 16.1 km
Cel clar

METAR: KDNV 180155Z AUTO 30006KT 10SM CLR 14/08 A2997 RMK AO2 T01440083

Hora: 21:16 (02:16 UTC)


TAF: manca

Observacions i pronòstics meteorològics de més de 4000 aeroports (METAR i TAF).

Les estacions disponibles són els punts grocs i vermells al mapa.

Posi el ratolí al punt desitjat per veure el nom de l'estació.

Feu clic per veure les observacions i els pronòstics meteorològics.

Per canviar el mapa: feu clic els botons verds amb una creu de color negre per apropar; al botó verd amb un guió per allunyar la imatge; o en les fletxes verdes per a mapes adjacents.


METAR-TAF: